sensor_id;sensor_type;location;lat;lon;timestamp;temperature;humidity
12156;DHT22;6141;49.092;8.516;2022-09-03T00:08:30;22.90;26.50
12156;DHT22;6141;49.092;8.516;2022-09-03T00:12:20;23.20;25.60
12156;DHT22;6141;49.092;8.516;2022-09-03T00:16:45;23.20;25.80
12156;DHT22;6141;49.092;8.516;2022-09-03T00:35:33;22.90;26.90
12156;DHT22;6141;49.092;8.516;2022-09-03T00:39:33;22.70;28.00
12156;DHT22;6141;49.092;8.516;2022-09-03T00:42:17;22.60;29.30
12156;DHT22;6141;49.092;8.516;2022-09-03T00:45:10;22.60;28.70
12156;DHT22;6141;49.092;8.516;2022-09-03T00:57:45;22.90;28.00
12156;DHT22;6141;49.092;8.516;2022-09-03T01:00:22;22.70;28.80
12156;DHT22;6141;49.092;8.516;2022-09-03T01:03:04;22.70;29.90
12156;DHT22;6141;49.092;8.516;2022-09-03T01:05:51;23.00;28.70
12156;DHT22;6141;49.092;8.516;2022-09-03T01:08:42;22.90;27.00
12156;DHT22;6141;49.092;8.516;2022-09-03T01:11:23;22.80;28.40
12156;DHT22;6141;49.092;8.516;2022-09-03T01:14:02;22.60;28.90
12156;DHT22;6141;49.092;8.516;2022-09-03T01:16:38;22.50;29.60
12156;DHT22;6141;49.092;8.516;2022-09-03T01:19:40;22.60;30.00
12156;DHT22;6141;49.092;8.516;2022-09-03T01:22:33;22.70;29.40
12156;DHT22;6141;49.092;8.516;2022-09-03T01:25:16;22.70;30.00
12156;DHT22;6141;49.092;8.516;2022-09-03T01:28:00;22.60;30.00
12156;DHT22;6141;49.092;8.516;2022-09-03T01:30:39;22.60;29.80
12156;DHT22;6141;49.092;8.516;2022-09-03T01:33:12;22.70;30.70
12156;DHT22;6141;49.092;8.516;2022-09-03T01:35:47;22.60;30.40
12156;DHT22;6141;49.092;8.516;2022-09-03T01:38:24;22.50;29.70
12156;DHT22;6141;49.092;8.516;2022-09-03T01:41:03;22.40;30.30
12156;DHT22;6141;49.092;8.516;2022-09-03T01:43:55;22.30;30.50
12156;DHT22;6141;49.092;8.516;2022-09-03T01:46:30;22.10;31.20
12156;DHT22;6141;49.092;8.516;2022-09-03T01:50:14;22.00;31.00
12156;DHT22;6141;49.092;8.516;2022-09-03T02:26:10;21.30;33.70
12156;DHT22;6141;49.092;8.516;2022-09-03T02:28:39;21.20;34.40
12156;DHT22;6141;49.092;8.516;2022-09-03T02:31:08;21.10;35.10
12156;DHT22;6141;49.092;8.516;2022-09-03T02:33:39;21.30;35.90
12156;DHT22;6141;49.092;8.516;2022-09-03T02:36:10;21.40;34.40
12156;DHT22;6141;49.092;8.516;2022-09-03T02:38:40;21.50;34.60
12156;DHT22;6141;49.092;8.516;2022-09-03T02:41:11;21.30;33.50
12156;DHT22;6141;49.092;8.516;2022-09-03T02:43:44;21.40;33.40
12156;DHT22;6141;49.092;8.516;2022-09-03T02:46:17;21.40;34.10
12156;DHT22;6141;49.092;8.516;2022-09-03T02:48:47;21.40;34.60
12156;DHT22;6141;49.092;8.516;2022-09-03T02:51:16;21.30;33.70
12156;DHT22;6141;49.092;8.516;2022-09-03T02:54:29;21.30;33.90
12156;DHT22;6141;49.092;8.516;2022-09-03T03:02:48;21.40;31.70
12156;DHT22;6141;49.092;8.516;2022-09-03T03:07:19;21.60;32.40
12156;DHT22;6141;49.092;8.516;2022-09-03T03:11:37;21.60;30.70
12156;DHT22;6141;49.092;8.516;2022-09-03T03:18:45;21.50;30.60
12156;DHT22;6141;49.092;8.516;2022-09-03T03:22:46;21.50;30.00
12156;DHT22;6141;49.092;8.516;2022-09-03T03:26:30;21.60;30.90
12156;DHT22;6141;49.092;8.516;2022-09-03T03:29:47;21.60;30.70
12156;DHT22;6141;49.092;8.516;2022-09-03T03:42:01;21.60;30.30
12156;DHT22;6141;49.092;8.516;2022-09-03T03:50:46;21.40;30.70
12156;DHT22;6141;49.092;8.516;2022-09-03T03:55:17;21.50;31.70
12156;DHT22;6141;49.092;8.516;2022-09-03T03:59:19;21.50;31.60
12156;DHT22;6141;49.092;8.516;2022-09-03T04:02:54;21.70;30.80
12156;DHT22;6141;49.092;8.516;2022-09-03T04:06:24;21.60;30.70
12156;DHT22;6141;49.092;8.516;2022-09-03T04:08:57;21.50;32.70
12156;DHT22;6141;49.092;8.516;2022-09-03T04:11:29;21.30;34.10
12156;DHT22;6141;49.092;8.516;2022-09-03T04:13:58;21.20;33.70
12156;DHT22;6141;49.092;8.516;2022-09-03T04:16:27;21.10;32.80
12156;DHT22;6141;49.092;8.516;2022-09-03T04:18:56;21.20;36.30
12156;DHT22;6141;49.092;8.516;2022-09-03T04:21:26;21.20;35.70
12156;DHT22;6141;49.092;8.516;2022-09-03T04:23:55;21.20;36.90
12156;DHT22;6141;49.092;8.516;2022-09-03T04:26:26;21.00;37.30
12156;DHT22;6141;49.092;8.516;2022-09-03T04:29:01;21.00;38.60
12156;DHT22;6141;49.092;8.516;2022-09-03T04:31:34;21.10;40.30
12156;DHT22;6141;49.092;8.516;2022-09-03T04:34:06;21.20;39.10
12156;DHT22;6141;49.092;8.516;2022-09-03T04:36:34;21.30;39.90
12156;DHT22;6141;49.092;8.516;2022-09-03T04:39:05;21.20;40.30
12156;DHT22;6141;49.092;8.516;2022-09-03T04:41:36;21.20;37.80
12156;DHT22;6141;49.092;8.516;2022-09-03T04:44:09;20.90;40.30
12156;DHT22;6141;49.092;8.516;2022-09-03T04:47:07;20.90;39.40
12156;DHT22;6141;49.092;8.516;2022-09-03T04:50:04;21.10;36.80
12156;DHT22;6141;49.092;8.516;2022-09-03T04:53:18;21.10;39.10
12156;DHT22;6141;49.092;8.516;2022-09-03T04:56:21;21.10;38.80
12156;DHT22;6141;49.092;8.516;2022-09-03T04:58:54;20.90;40.90
12156;DHT22;6141;49.092;8.516;2022-09-03T05:01:26;20.80;41.50
12156;DHT22;6141;49.092;8.516;2022-09-03T05:03:55;20.70;41.10
12156;DHT22;6141;49.092;8.516;2022-09-03T05:06:28;20.60;42.50
12156;DHT22;6141;49.092;8.516;2022-09-03T05:09:01;20.50;42.20
12156;DHT22;6141;49.092;8.516;2022-09-03T05:11:32;20.30;42.40
12156;DHT22;6141;49.092;8.516;2022-09-03T05:14:02;20.20;43.00
12156;DHT22;6141;49.092;8.516;2022-09-03T05:16:45;20.10;42.20
12156;DHT22;6141;49.092;8.516;2022-09-03T05:19:26;20.00;43.10
12156;DHT22;6141;49.092;8.516;2022-09-03T05:22:44;20.10;45.30
12156;DHT22;6141;49.092;8.516;2022-09-03T05:25:34;20.10;43.30
12156;DHT22;6141;49.092;8.516;2022-09-03T05:28:21;20.20;42.90
12156;DHT22;6141;49.092;8.516;2022-09-03T05:31:05;20.50;43.80
12156;DHT22;6141;49.092;8.516;2022-09-03T05:33:39;20.50;43.20
12156;DHT22;6141;49.092;8.516;2022-09-03T05:36:10;20.50;42.20
12156;DHT22;6141;49.092;8.516;2022-09-03T05:38:42;20.40;42.60
12156;DHT22;6141;49.092;8.516;2022-09-03T05:41:14;20.50;40.20
12156;DHT22;6141;49.092;8.516;2022-09-03T05:43:54;20.70;40.80
12156;DHT22;6141;49.092;8.516;2022-09-03T05:46:33;20.70;40.80
12156;DHT22;6141;49.092;8.516;2022-09-03T05:49:24;20.80;40.80
12156;DHT22;6141;49.092;8.516;2022-09-03T05:52:05;20.90;39.60
12156;DHT22;6141;49.092;8.516;2022-09-03T05:54:49;20.90;39.40
12156;DHT22;6141;49.092;8.516;2022-09-03T05:57:24;20.90;39.60
12156;DHT22;6141;49.092;8.516;2022-09-03T05:59:59;21.00;37.50
12156;DHT22;6141;49.092;8.516;2022-09-03T06:02:43;21.10;36.80
12156;DHT22;6141;49.092;8.516;2022-09-03T06:05:20;21.20;36.90
12156;DHT22;6141;49.092;8.516;2022-09-03T06:07:54;21.30;37.00
12156;DHT22;6141;49.092;8.516;2022-09-03T06:10:26;21.20;36.90
12156;DHT22;6141;49.092;8.516;2022-09-03T06:14:24;21.20;36.90
12156;DHT22;6141;49.092;8.516;2022-09-03T06:18:36;21.10;34.50
12156;DHT22;6141;49.092;8.516;2022-09-03T06:22:13;21.30;34.90
12156;DHT22;6141;49.092;8.516;2022-09-03T06:26:03;21.30;35.20
12156;DHT22;6141;49.092;8.516;2022-09-03T06:29:35;21.50;35.10
12156;DHT22;6141;49.092;8.516;2022-09-03T06:47:12;21.70;36.20
12156;DHT22;6141;49.092;8.516;2022-09-03T06:51:09;21.70;35.70
12156;DHT22;6141;49.092;8.516;2022-09-03T07:30:44;21.70;42.10
12156;DHT22;6141;49.092;8.516;2022-09-03T07:34:16;21.60;43.80
12156;DHT22;6141;49.092;8.516;2022-09-03T07:37:10;21.60;41.60
12156;DHT22;6141;49.092;8.516;2022-09-03T07:40:07;21.50;42.80
12156;DHT22;6141;49.092;8.516;2022-09-03T07:43:36;21.40;44.20
12156;DHT22;6141;49.092;8.516;2022-09-03T07:51:14;21.30;43.50
12156;DHT22;6141;49.092;8.516;2022-09-03T08:01:17;21.20;43.40
12156;DHT22;6141;49.092;8.516;2022-09-03T08:30:12;19.80;57.20
12156;DHT22;6141;49.092;8.516;2022-09-03T08:32:47;19.90;57.90
12156;DHT22;6141;49.092;8.516;2022-09-03T08:35:17;19.80;57.60
12156;DHT22;6141;49.092;8.516;2022-09-03T08:37:50;19.90;59.40
12156;DHT22;6141;49.092;8.516;2022-09-03T08:40:23;19.60;61.00
12156;DHT22;6141;49.092;8.516;2022-09-03T08:43:04;19.60;60.40
12156;DHT22;6141;49.092;8.516;2022-09-03T08:45:44;19.70;60.90
12156;DHT22;6141;49.092;8.516;2022-09-03T08:48:17;19.70;64.40
12156;DHT22;6141;49.092;8.516;2022-09-03T08:50:55;19.70;64.40
12156;DHT22;6141;49.092;8.516;2022-09-03T08:53:35;19.80;65.60
12156;DHT22;6141;49.092;8.516;2022-09-03T08:56:09;20.20;68.10
12156;DHT22;6141;49.092;8.516;2022-09-03T08:58:38;20.30;66.00
12156;DHT22;6141;49.092;8.516;2022-09-03T09:01:14;20.20;67.90
12156;DHT22;6141;49.092;8.516;2022-09-03T09:03:52;20.30;67.60
12156;DHT22;6141;49.092;8.516;2022-09-03T09:06:27;20.40;67.90
12156;DHT22;6141;49.092;8.516;2022-09-03T09:09:08;20.60;66.30
12156;DHT22;6141;49.092;8.516;2022-09-03T09:11:48;20.80;65.00
12156;DHT22;6141;49.092;8.516;2022-09-03T09:14:21;21.00;64.90
12156;DHT22;6141;49.092;8.516;2022-09-03T09:17:03;21.20;65.00
12156;DHT22;6141;49.092;8.516;2022-09-03T09:19:44;21.70;63.60
12156;DHT22;6141;49.092;8.516;2022-09-03T09:22:24;21.80;63.90
12156;DHT22;6141;49.092;8.516;2022-09-03T09:24:56;22.10;65.00
12156;DHT22;6141;49.092;8.516;2022-09-03T09:27:33;22.30;61.10
12156;DHT22;6141;49.092;8.516;2022-09-03T09:30:17;22.40;55.60
12156;DHT22;6141;49.092;8.516;2022-09-03T09:36:09;22.40;54.50
12156;DHT22;6141;49.092;8.516;2022-09-03T09:42:09;22.20;57.00
12156;DHT22;6141;49.092;8.516;2022-09-03T09:44:42;22.00;57.50
12156;DHT22;6141;49.092;8.516;2022-09-03T09:47:27;21.90;57.30
12156;DHT22;6141;49.092;8.516;2022-09-03T09:50:16;22.00;59.40
12156;DHT22;6141;49.092;8.516;2022-09-03T09:53:58;22.10;60.00
12156;DHT22;6141;49.092;8.516;2022-09-03T10:05:31;22.30;59.70
12156;DHT22;6141;49.092;8.516;2022-09-03T10:08:18;22.40;65.10
12156;DHT22;6141;49.092;8.516;2022-09-03T10:10:58;22.50;62.80
12156;DHT22;6141;49.092;8.516;2022-09-03T10:13:57;22.50;64.90
12156;DHT22;6141;49.092;8.516;2022-09-03T10:16:38;22.50;64.80
12156;DHT22;6141;49.092;8.516;2022-09-03T10:19:22;22.70;65.20
12156;DHT22;6141;49.092;8.516;2022-09-03T10:22:03;22.70;63.00
12156;DHT22;6141;49.092;8.516;2022-09-03T10:24:47;22.90;61.10
12156;DHT22;6141;49.092;8.516;2022-09-03T10:27:27;23.10;61.30
12156;DHT22;6141;49.092;8.516;2022-09-03T10:30:02;23.30;63.00
12156;DHT22;6141;49.092;8.516;2022-09-03T10:32:40;23.50;62.70
12156;DHT22;6141;49.092;8.516;2022-09-03T10:35:22;23.80;59.60
12156;DHT22;6141;49.092;8.516;2022-09-03T10:38:36;24.00;60.10
12156;DHT22;6141;49.092;8.516;2022-09-03T10:41:27;24.20;56.20
12156;DHT22;6141;49.092;8.516;2022-09-03T10:44:53;24.40;59.20
12156;DHT22;6141;49.092;8.516;2022-09-03T10:48:09;24.70;59.50
12156;DHT22;6141;49.092;8.516;2022-09-03T10:50:56;24.70;54.40
12156;DHT22;6141;49.092;8.516;2022-09-03T10:54:19;24.60;53.20
12156;DHT22;6141;49.092;8.516;2022-09-03T10:57:10;24.40;55.30
12156;DHT22;6141;49.092;8.516;2022-09-03T11:00:00;24.50;54.80
12156;DHT22;6141;49.092;8.516;2022-09-03T11:06:03;24.60;53.20
12156;DHT22;6141;49.092;8.516;2022-09-03T11:08:40;24.60;52.10
12156;DHT22;6141;49.092;8.516;2022-09-03T11:11:15;24.70;52.20
12156;DHT22;6141;49.092;8.516;2022-09-03T11:14:06;24.70;47.80
12156;DHT22;6141;49.092;8.516;2022-09-03T11:16:39;24.60;49.40
12156;DHT22;6141;49.092;8.516;2022-09-03T11:19:13;24.40;49.20
12156;DHT22;6141;49.092;8.516;2022-09-03T11:21:43;24.30;52.90
12156;DHT22;6141;49.092;8.516;2022-09-03T11:24:21;24.20;54.80
12156;DHT22;6141;49.092;8.516;2022-09-03T11:27:03;24.10;52.90
12156;DHT22;6141;49.092;8.516;2022-09-03T11:29:50;24.10;52.80
12156;DHT22;6141;49.092;8.516;2022-09-03T11:32:54;24.20;55.30
12156;DHT22;6141;49.092;8.516;2022-09-03T13:33:14;25.50;44.70
12156;DHT22;6141;49.092;8.516;2022-09-03T13:46:15;25.90;42.60
12156;DHT22;6141;49.092;8.516;2022-09-03T14:09:08;24.30;49.90
12156;DHT22;6141;49.092;8.516;2022-09-03T14:12:24;24.50;49.20
12156;DHT22;6141;49.092;8.516;2022-09-03T14:15:14;24.70;50.60
12156;DHT22;6141;49.092;8.516;2022-09-03T14:22:08;25.00;48.60
12156;DHT22;6141;49.092;8.516;2022-09-03T14:59:12;26.30;44.40
12156;DHT22;6141;49.092;8.516;2022-09-03T15:07:07;25.90;47.90
12156;DHT22;6141;49.092;8.516;2022-09-03T15:23:55;25.70;47.70
12156;DHT22;6141;49.092;8.516;2022-09-03T15:28:09;25.60;46.90
12156;DHT22;6141;49.092;8.516;2022-09-03T15:40:53;25.30;47.10
12156;DHT22;6141;49.092;8.516;2022-09-03T15:44:44;25.40;45.80
12156;DHT22;6141;49.092;8.516;2022-09-03T15:49:09;25.10;46.30
12156;DHT22;6141;49.092;8.516;2022-09-03T15:53:01;25.00;45.10
12156;DHT22;6141;49.092;8.516;2022-09-03T15:57:00;24.70;44.90
12156;DHT22;6141;49.092;8.516;2022-09-03T16:04:08;24.60;44.90
12156;DHT22;6141;49.092;8.516;2022-09-03T16:17:49;24.50;43.00
12156;DHT22;6141;49.092;8.516;2022-09-03T16:24:58;24.20;41.60
12156;DHT22;6141;49.092;8.516;2022-09-03T16:29:24;24.10;42.50
12156;DHT22;6141;49.092;8.516;2022-09-03T16:42:19;24.30;42.20
12156;DHT22;6141;49.092;8.516;2022-09-03T16:44:59;24.40;41.60
12156;DHT22;6141;49.092;8.516;2022-09-03T16:47:41;24.50;41.10
12156;DHT22;6141;49.092;8.516;2022-09-03T16:50:25;24.50;40.90
12156;DHT22;6141;49.092;8.516;2022-09-03T16:53:06;24.40;41.30
12156;DHT22;6141;49.092;8.516;2022-09-03T16:55:55;24.10;40.50
12156;DHT22;6141;49.092;8.516;2022-09-03T16:58:39;23.90;41.80
12156;DHT22;6141;49.092;8.516;2022-09-03T17:01:23;23.90;42.60
12156;DHT22;6141;49.092;8.516;2022-09-03T17:10:58;23.90;42.10
12156;DHT22;6141;49.092;8.516;2022-09-03T17:13:58;23.90;41.80
12156;DHT22;6141;49.092;8.516;2022-09-03T17:16:41;24.00;41.90
12156;DHT22;6141;49.092;8.516;2022-09-03T17:19:21;24.20;41.90
12156;DHT22;6141;49.092;8.516;2022-09-03T17:22:02;24.40;41.80
12156;DHT22;6141;49.092;8.516;2022-09-03T17:25:27;24.30;41.80
12156;DHT22;6141;49.092;8.516;2022-09-03T17:29:44;24.40;41.70
12156;DHT22;6141;49.092;8.516;2022-09-03T18:04:56;23.30;50.20
12156;DHT22;6141;49.092;8.516;2022-09-03T18:13:20;23.10;51.60
12156;DHT22;6141;49.092;8.516;2022-09-03T18:21:16;22.80;51.30
12156;DHT22;6141;49.092;8.516;2022-09-03T18:59:20;22.10;53.60
12156;DHT22;6141;49.092;8.516;2022-09-03T20:02:18;21.20;61.10
12156;DHT22;6141;49.092;8.516;2022-09-03T20:06:53;21.20;61.70
12156;DHT22;6141;49.092;8.516;2022-09-03T20:20:42;21.40;62.00
12156;DHT22;6141;49.092;8.516;2022-09-03T20:27:25;21.80;60.30
12156;DHT22;6141;49.092;8.516;2022-09-03T20:36:51;21.50;58.10
12156;DHT22;6141;49.092;8.516;2022-09-03T20:54:28;20.90;59.70
12156;DHT22;6141;49.092;8.516;2022-09-03T20:57:41;21.10;59.00
12156;DHT22;6141;49.092;8.516;2022-09-03T21:00:49;21.00;59.30
12156;DHT22;6141;49.092;8.516;2022-09-03T21:04:01;20.90;59.20
12156;DHT22;6141;49.092;8.516;2022-09-03T21:07:59;20.80;59.10
12156;DHT22;6141;49.092;8.516;2022-09-03T21:11:30;21.00;58.00
12156;DHT22;6141;49.092;8.516;2022-09-03T21:14:34;20.80;58.40
12156;DHT22;6141;49.092;8.516;2022-09-03T21:18:00;20.60;59.00
12156;DHT22;6141;49.092;8.516;2022-09-03T21:21:29;20.60;59.30
12156;DHT22;6141;49.092;8.516;2022-09-03T21:25:00;20.70;59.20
12156;DHT22;6141;49.092;8.516;2022-09-03T21:28:33;20.70;58.80
12156;DHT22;6141;49.092;8.516;2022-09-03T21:31:33;20.70;57.90
12156;DHT22;6141;49.092;8.516;2022-09-03T21:35:10;20.80;58.40
12156;DHT22;6141;49.092;8.516;2022-09-03T21:38:33;20.50;58.40
12156;DHT22;6141;49.092;8.516;2022-09-03T21:41:39;20.30;58.80
12156;DHT22;6141;49.092;8.516;2022-09-03T21:45:01;20.20;59.40
12156;DHT22;6141;49.092;8.516;2022-09-03T21:48:36;20.30;60.30
12156;DHT22;6141;49.092;8.516;2022-09-03T21:51:59;20.50;59.10
12156;DHT22;6141;49.092;8.516;2022-09-03T21:55:19;20.60;57.30
12156;DHT22;6141;49.092;8.516;2022-09-03T21:58:32;20.40;57.30
12156;DHT22;6141;49.092;8.516;2022-09-03T22:01:48;20.00;57.40
12156;DHT22;6141;49.092;8.516;2022-09-03T22:05:11;19.70;60.10
12156;DHT22;6141;49.092;8.516;2022-09-03T22:08:16;19.50;61.40
12156;DHT22;6141;49.092;8.516;2022-09-03T22:20:31;20.10;59.50
12156;DHT22;6141;49.092;8.516;2022-09-03T22:33:13;20.60;56.20
12156;DHT22;6141;49.092;8.516;2022-09-03T22:52:59;19.90;58.80
12156;DHT22;6141;49.092;8.516;2022-09-03T23:02:21;19.80;60.60
12156;DHT22;6141;49.092;8.516;2022-09-03T23:05:37;19.80;60.70
12156;DHT22;6141;49.092;8.516;2022-09-03T23:16:32;20.20;60.00
12156;DHT22;6141;49.092;8.516;2022-09-03T23:20:04;20.20;60.00
12156;DHT22;6141;49.092;8.516;2022-09-03T23:23:22;20.00;60.70
12156;DHT22;6141;49.092;8.516;2022-09-03T23:26:30;19.80;60.50
12156;DHT22;6141;49.092;8.516;2022-09-03T23:29:40;19.90;60.60
12156;DHT22;6141;49.092;8.516;2022-09-03T23:32:24;20.00;59.30
12156;DHT22;6141;49.092;8.516;2022-09-03T23:35:55;19.90;60.00
12156;DHT22;6141;49.092;8.516;2022-09-03T23:38:56;19.80;60.30
12156;DHT22;6141;49.092;8.516;2022-09-03T23:42:06;19.60;60.40
12156;DHT22;6141;49.092;8.516;2022-09-03T23:45:34;19.40;62.60
12156;DHT22;6141;49.092;8.516;2022-09-03T23:49:55;19.30;61.70
12156;DHT22;6141;49.092;8.516;2022-09-03T23:53:01;19.70;61.60
12156;DHT22;6141;49.092;8.516;2022-09-03T23:56:44;20.00;60.20
